Terminal Aerodrome Forecast
Issued by NWS Dodge City, KS

Home | Current Version | Previous Version | Graphics & Text | Print | Product List | Glossary Off
Versions: 1 2 3 4 5 6 7 8 9 10 11 12 13 14 15 16

000
FTUS43 KDDC 212338
TAFDDC
TAF
KDDC 212338Z 2200/2224 19013G20KT P6SM BKN250
     FM220600 22006KT P6SM VCTS SCT060CB
     FM221000 36006KT P6SM BKN015
     FM221200 04016G25KT P6SM BKN015
     FM221500 01009KT P6SM SCT035
     FM222000 05011KT P6SM FEW150=

USA.gov is the U.S. government's official web portal to all federal, state and local government web resources and services.